Latest Weather Observations for Strathalbyn

IDS60801

Issued at 11:01 pm CST Thursday 28 May 2015 (issued every 30 minutes, with the page automatically refreshed every 10 minutes)

About weather observations | Map of weather stations | Latest weather observations for SA | Other Formats
Station Details ID: 024580 Name: STRATHALBYN RACECOURSE Lat: -35.28 Lon: 138.89 Height: 58.0 m
Data from the previous 72 hours. | See also: Recent months at Strathalbyn
Date/Time
CST
Temp
°C
App
Temp
°C
Dew
Point
Rel
Hum
%
Delta-T
°C
Wind Press
QNH
hPa
Press
MSL
hPa
Rain
since 9 am
mm
Dir
 
Spd
km/h
Gust
km/h
Spd
kts
Gust
kts
28/11:00pm 11.1 9.8 9.2 88 0.9 WSW 6 7 3 4 1021.2 - 4.6
28/10:30pm 11.7 10.4 9.3 85 1.2 WSW 6 7 3 4 1021.2 - 4.6
28/10:00pm 12.1 10.6 9.3 83 1.4 WSW 7 9 4 5 1020.8 - 4.6
28/09:30pm 12.5 11.2 9.9 84 1.3 WSW 7 11 4 6 1020.4 - 4.6
28/09:00pm 12.4 10.8 10.3 87 1.1 SW 9 11 5 6 1020.3 1020.4 4.6
28/08:30pm 12.4 11.2 10.3 87 1.1 SSW 7 7 4 4 1020.3 - 4.6
28/08:00pm 12.8 11.3 10.7 87 1.1 SSW 9 11 5 6 1020.0 - 4.6
28/07:30pm 12.8 13.1 11.0 89 0.9 CALM 0 6 0 3 1019.7 - 4.6
28/07:00pm 13.1 11.8 11.3 89 1.0 W 9 15 5 8 1019.3 - 4.6
28/06:30pm 13.1 12.2 11.2 88 1.0 W 7 13 4 7 1019.2 - 4.0
28/06:00pm 13.2 11.7 10.6 84 1.4 W 9 19 5 10 1018.5 1018.6 4.0
28/05:30pm 13.3 10.7 10.7 84 1.4 WNW 15 22 8 12 1018.3 - 4.0
28/05:00pm 14.3 12.1 10.9 80 1.8 W 13 20 7 11 1018.1 - 2.4
28/04:30pm 14.2 10.8 10.6 79 1.9 W 19 24 10 13 1017.6 - 2.4
28/04:00pm 14.0 10.0 10.4 79 1.9 W 22 33 12 18 1017.3 - 2.4
28/03:30pm 14.4 9.8 11.0 80 1.8 WSW 26 33 14 18 1017.4 - 0.6
28/03:00pm 16.7 12.5 9.6 63 3.7 WNW 22 32 12 17 1016.9 1017.0 0.0
28/02:30pm 17.2 12.5 9.1 59 4.2 W 24 37 13 20 1016.8 - 0.0
28/02:00pm 17.5 12.9 9.7 60 4.1 WNW 24 35 13 19 1016.8 - 0.0
28/01:30pm 17.0 11.8 10.1 64 3.7 W 28 35 15 19 1016.9 - 0.0
28/01:00pm 17.3 11.7 10.2 63 3.8 W 30 46 16 25 1017.0 - 0.0
28/12:57pm 17.0 11.8 10.1 64 3.7 W 28 46 15 25 1017.0 - 0.0
28/12:30pm 17.0 11.5 10.6 66 3.4 WNW 30 43 16 23 1017.1 - 0.0
28/12:16pm 16.9 11.7 10.3 65 3.5 WNW 28 46 15 25 1017.2 - 0.0
28/12:00pm 16.7 12.3 10.5 67 3.3 WNW 24 39 13 21 1017.5 1017.6 0.0
28/11:30am 16.4 10.8 10.0 66 3.4 NW 30 37 16 20 1018.1 - 0.0
28/11:00am 17.3 14.0 9.7 61 4.0 WNW 17 26 9 14 1018.1 - 0.0
28/10:30am 16.7 13.2 10.1 65 3.5 W 19 28 10 15 1018.4 - 0.0
28/10:00am 15.6 13.8 11.0 74 2.5 NNW 11 17 6 9 1018.2 - 0.0
28/09:30am 13.8 11.4 10.0 78 2.0 N 13 17 7 9 1018.1 - 0.0
28/09:00am 13.9 11.5 9.9 77 2.1 N 13 17 7 9 1018.2 1018.3 0.0
28/08:30am 11.7 10.3 9.4 86 1.2 NNW 7 9 4 5 1018.2 - 0.0
28/08:00am 11.0 9.0 8.8 86 1.1 NNW 9 11 5 6 1018.0 - 0.0
28/07:30am 10.3 8.2 8.2 87 1.0 NNW 9 13 5 7 1018.0 - 0.0
28/07:00am 10.3 7.4 8.1 86 1.1 N 13 15 7 8 1017.8 - 0.0
28/06:30am 11.1 8.7 8.5 84 1.3 NNW 11 15 6 8 1017.4 - 0.0
28/06:00am 10.6 8.4 8.0 84 1.3 NNW 9 11 5 6 1017.1 1017.2 0.0
28/05:30am 11.0 8.4 7.9 81 1.5 NNW 11 13 6 7 1016.8 - 0.0
28/05:00am 11.5 9.0 8.0 79 1.7 NNW 11 13 6 7 1017.1 - 0.0
28/04:30am 11.7 9.6 8.2 79 1.7 NNW 9 11 5 6 1017.0 - 0.0
28/04:00am 12.4 9.9 8.1 75 2.1 NNW 11 13 6 7 1017.1 - 0.0
28/03:30am 12.2 9.3 8.1 76 2.0 NW 13 15 7 8 1017.0 - 0.0
28/03:00am 12.3 9.3 7.8 74 2.2 NNW 13 15 7 8 1016.8 1016.9 0.0
28/02:30am 12.9 10.0 8.2 73 2.3 NNW 13 15 7 8 1017.2 - 0.0
28/02:00am 13.0 10.2 8.7 75 2.2 NW 13 17 7 9 1017.5 - 0.0
28/01:30am 12.7 10.0 9.0 78 1.9 NNW 13 17 7 9 1017.6 - 0.0
28/01:00am 12.9 9.8 9.0 77 2.0 NW 15 17 8 9 1017.4 - 0.0
28/12:30am 12.8 9.8 9.1 78 1.9 NW 15 17 8 9 1017.5 - 0.0
28/12:00am 13.6 10.6 9.3 75 2.2 NW 15 17 8 9 1017.8 1017.9 0.0
 
Date/Time
CST
Temp
°C
App
Temp
°C
Dew
Point
Rel
Hum
%
Delta-T
°C
Wind Press
QNH
hPa
Press
MSL
hPa
Rain
since 9 am
mm
Dir
 
Spd
km/h
Gust
km/h
Spd
kts
Gust
kts
27/11:30pm 13.4 10.8 9.5 77 2.0 NW 13 17 7 9 1017.9 - 0.0
27/11:00pm 14.0 11.1 9.6 75 2.3 NNW 15 17 8 9 1018.0 - 0.0
27/10:30pm 13.8 11.3 9.8 77 2.1 NNW 13 17 7 9 1018.2 - 0.0
27/10:00pm 14.8 12.1 10.2 74 2.4 NW 15 17 8 9 1018.5 - 0.0
27/09:30pm 14.8 12.5 10.4 75 2.3 NNW 13 17 7 9 1018.5 - 0.0
27/09:00pm 14.6 12.2 10.2 75 2.3 NNW 13 19 7 10 1018.5 1018.6 0.0
27/08:30pm 13.7 11.3 9.9 78 2.0 NNW 13 17 7 9 1018.5 - 0.0
27/08:00pm 12.2 10.3 9.0 81 1.6 N 9 11 5 6 1018.6 - 0.0
27/07:30pm 13.3 11.6 9.7 79 1.8 N 9 11 5 6 1018.5 - 0.0
27/07:00pm 13.1 10.5 9.5 79 1.8 N 13 15 7 8 1018.5 - 0.0
27/06:30pm 13.0 10.5 9.6 80 1.7 N 13 15 7 8 1018.4 - 0.0
27/06:00pm 13.5 11.4 9.9 79 1.9 N 11 13 6 7 1018.3 1018.4 0.0
27/05:30pm 14.3 12.6 9.9 75 2.3 N 9 11 5 6 1018.1 - 0.0
27/05:00pm 16.3 14.3 10.2 67 3.2 N 11 15 6 8 1018.1 - 0.0
27/04:30pm 17.7 15.7 10.1 61 4.0 N 11 15 6 8 1018.1 - 0.0
27/04:00pm 18.2 15.9 10.6 61 4.1 NNW 13 19 7 10 1018.1 - 0.0
27/03:30pm 18.6 15.5 10.2 58 4.5 NW 17 24 9 13 1018.3 - 0.0
27/03:00pm 19.0 15.8 8.6 51 5.4 NW 15 20 8 11 1018.3 1018.4 0.0
27/02:30pm 19.0 16.1 9.5 54 5.0 NNW 15 20 8 11 1018.2 - 0.0
27/02:00pm 18.9 15.4 8.6 51 5.4 NNW 17 28 9 15 1018.2 - 0.0
27/01:30pm 18.7 15.0 10.0 57 4.6 NNW 20 26 11 14 1018.4 - 0.0
27/01:00pm 18.8 14.6 9.6 55 4.9 NW 22 32 12 17 1018.6 - 0.0
27/12:30pm 19.2 14.9 10.7 58 4.6 NW 24 37 13 20 1018.8 - 0.0
27/12:00pm 18.7 12.9 10.8 60 4.3 NW 32 46 17 25 1018.9 1019.0 0.0
27/11:30am 18.5 12.2 11.1 62 4.0 NW 35 44 19 24 1019.0 - 0.0
27/11:00am 18.2 13.2 10.8 62 4.0 NW 28 37 15 20 1019.3 - 0.0
27/10:30am 17.6 11.3 11.2 66 3.5 NW 35 43 19 23 1019.5 - 0.0
27/10:00am 17.1 11.3 10.9 67 3.3 NW 32 44 17 24 1019.5 - 0.0
27/09:30am 16.7 10.8 11.0 69 3.1 NW 33 48 18 26 1019.4 - 0.0
27/09:00am 16.0 10.4 10.3 69 3.0 NW 30 37 16 20 1019.5 1019.6 0.0
27/08:30am 15.2 9.9 10.0 71 2.7 NW 28 37 15 20 1019.5 - 0.0
27/08:00am 14.5 8.2 9.1 70 2.8 NW 32 39 17 21 1019.2 - 0.0
27/07:30am 13.8 9.1 9.3 74 2.3 NW 24 33 13 18 1019.2 - 0.0
27/07:00am 13.4 10.1 9.5 77 2.0 NNW 17 24 9 13 1019.2 - 0.0
27/06:30am 13.7 10.7 9.4 75 2.2 NW 15 24 8 13 1019.2 - 0.0
27/06:00am 13.8 11.1 8.8 72 2.5 NNW 13 20 7 11 1019.1 1019.2 0.0
27/05:30am 13.2 11.6 8.7 74 2.3 NNW 7 11 4 6 1019.2 - 0.0
27/05:00am 12.5 10.8 8.4 76 2.0 NNW 7 9 4 5 1019.3 - 0.0
27/04:30am 11.5 11.1 8.2 80 1.6 CALM 0 0 0 0 1019.1 - 0.0
27/04:00am 10.7 9.4 7.8 82 1.4 NNW 4 6 2 3 1018.8 - 0.0
27/03:30am 10.9 9.0 7.6 80 1.6 NNW 7 9 4 5 1018.9 - 0.0
27/03:00am 11.8 10.3 8.3 79 1.7 NNW 6 7 3 4 1019.2 1019.3 0.0
27/02:30am 11.7 9.9 8.0 78 1.8 NNW 7 9 4 5 1019.4 - 0.0
27/02:00am 12.9 10.5 8.6 75 2.2 NNW 11 13 6 7 1019.7 - 0.0
27/01:30am 13.4 11.1 8.9 74 2.3 NNW 11 13 6 7 1019.8 - 0.0
27/01:00am 14.0 10.6 9.0 72 2.5 NW 17 20 9 11 1019.9 - 0.0
27/12:30am 14.8 10.4 9.0 68 3.0 NW 22 28 12 15 1019.8 - 0.0
27/12:00am 15.1 11.1 9.0 67 3.1 NW 20 28 11 15 1019.9 1020.0 0.0
 
Date/Time
CST
Temp
°C
App
Temp
°C
Dew
Point
Rel
Hum
%
Delta-T
°C
Wind Press
QNH
hPa
Press
MSL
hPa
Rain
since 9 am
mm
Dir
 
Spd
km/h
Gust
km/h
Spd
kts
Gust
kts
26/11:30pm 15.1 11.1 9.2 68 3.0 WNW 20 24 11 13 1020.3 - 0.0
26/11:00pm 15.0 11.6 9.1 68 3.0 WNW 17 20 9 11 1020.5 - 0.0
26/10:30pm 15.3 11.5 9.0 66 3.2 WNW 19 22 10 12 1020.8 - 0.0
26/10:00pm 13.7 12.6 10.7 82 1.6 E 7 9 4 5 1021.2 - 0.0
26/09:30pm 13.6 12.4 10.2 80 1.8 E 7 9 4 5 1021.2 - 0.0
26/09:00pm 13.4 12.4 10.2 81 1.7 E 6 7 3 4 1021.2 1021.2 0.0
26/08:30pm 13.8 12.6 9.6 76 2.2 E 6 7 3 4 1021.4 - 0.0
26/08:00pm 13.7 12.3 9.4 75 2.2 E 7 9 4 5 1021.1 - 0.0
26/07:30pm 14.0 11.8 9.2 73 2.5 E 11 13 6 7 1021.2 - 0.0
26/07:00pm 13.9 11.3 9.3 74 2.4 E 13 15 7 8 1021.0 - 0.0
26/06:30pm 14.1 12.0 9.9 76 2.2 E 11 11 6 6 1020.9 - 0.0
26/06:00pm 14.2 12.9 10.0 76 2.2 E 7 9 4 5 1020.9 1020.9 0.0
26/05:30pm 15.5 14.2 10.1 70 2.8 E 7 7 4 4 1020.8 - 0.0
26/05:00pm 17.6 16.3 9.2 58 4.4 E 6 7 3 4 1020.8 - 0.0
26/04:30pm 19.4 19.6 10.4 56 4.9 CALM 0 0 0 0 1020.9 - 0.0
26/04:00pm 19.7 19.0 11.5 59 4.5 E 6 9 3 5 1020.8 - 0.0
26/03:30pm 18.6 17.8 11.7 64 3.8 E 7 13 4 7 1020.8 - 0.0
26/03:00pm 19.2 18.0 11.7 62 4.1 ENE 9 11 5 6 1020.8 1020.8 0.0
26/02:30pm 20.1 18.7 8.8 48 5.9 NE 6 9 3 5 1021.0 - 0.0
26/02:00pm 19.2 18.1 9.9 55 5.0 NE 6 7 3 4 1021.4 - 0.0
26/01:30pm 18.8 17.7 9.8 56 4.8 ENE 6 9 3 5 1021.9 - 0.0
26/01:00pm 18.6 17.3 12.6 68 3.4 ENE 11 13 6 7 1022.5 - 0.0
26/12:30pm 18.3 16.9 10.9 62 4.0 ENE 9 13 5 7 1022.9 - 0.0
26/12:00pm 18.1 16.3 10.7 62 4.0 NE 11 13 6 7 1023.2 1023.2 0.0
26/11:30am 18.6 17.4 10.4 59 4.4 N 7 13 4 7 1023.9 - 0.0
26/11:00am 17.8 16.6 10.2 61 4.1 SE 7 11 4 6 1024.3 - 0.0
26/10:30am 16.8 15.4 9.5 62 3.8 SE 7 11 4 6 1024.6 - 0.0
26/10:00am 15.8 14.9 10.6 71 2.8 SE 6 7 3 4 1025.0 - 0.0
26/09:30am 13.9 13.9 9.7 76 2.2 CALM 0 0 0 0 1025.2 - 0.0
26/09:00am 12.5 12.5 9.7 83 1.4 CALM 0 0 0 0 1025.3 1025.3 0.0
26/08:30am 11.6 11.5 9.3 86 1.2 CALM 0 0 0 0 1025.4 - 0.0
26/08:00am 11.0 9.7 9.1 88 0.9 SE 6 7 3 4 1025.3 - 0.0
26/07:30am 10.5 9.9 8.8 89 0.8 SE 2 6 1 3 1025.1 - 0.0
26/07:00am 9.8 7.6 7.9 88 0.9 SE 9 11 5 6 1025.3 - 0.0
26/06:30am 10.4 8.9 8.5 88 0.9 SE 6 7 3 4 1025.4 - 0.0
26/06:00am 10.3 10.0 8.6 89 0.8 CALM 0 7 0 4 1025.2 1025.2 0.0
26/05:30am 10.4 8.8 8.7 89 0.8 SE 7 11 4 6 1025.2 - 0.0
26/05:00am 10.6 9.1 8.5 87 1.0 SE 6 6 3 3 1025.3 - 0.0
26/04:30am 10.5 9.4 8.6 88 0.9 SE 4 7 2 4 1025.2 - 0.0
26/04:00am 10.6 10.3 8.5 87 1.0 CALM 0 0 0 0 1025.3 - 0.0
26/03:30am 10.6 10.2 8.4 86 1.1 CALM 0 6 0 3 1025.3 - 0.0
26/03:00am 10.5 9.4 8.4 87 1.0 SE 4 7 2 4 1025.7 1025.7 0.0
26/02:30am 10.9 9.2 8.3 84 1.3 SE 7 9 4 5 1025.9 - 0.0
26/02:00am 10.7 8.7 8.5 86 1.1 SE 9 11 5 6 1026.3 - 0.0
26/01:30am 10.2 9.8 8.3 88 0.9 CALM 0 0 0 0 1026.1 - 0.0
26/01:00am 10.4 9.6 8.2 86 1.1 SE 2 6 1 3 1026.3 - 0.0
26/12:30am 10.6 8.8 8.0 84 1.3 SE 7 7 4 4 1026.3 - 0.0
26/12:00am 10.6 9.8 8.0 84 1.3 SE 2 6 1 3 1026.7 1026.7 0.0
 
Date/Time
CST
Temp
°C
App
Temp
°C
Dew
Point
Rel
Hum
%
Delta-T
°C
Wind Press
QNH
hPa
Press
MSL
hPa
Rain
since 9 am
mm
Dir
 
Spd
km/h
Gust
km/h
Spd
kts
Gust
kts
25/11:30pm 10.9 9.3 8.1 83 1.4 SE 6 7 3 4 1027.2 - 0.0

Other Formats:

Comma delimited format used in spreadsheet applications
http://www.bom.gov.au/fwo/IDS60801/IDS60801.94814.axf

JavaScript Object Notation format (JSON) in row-major order
http://www.bom.gov.au/fwo/IDS60801/IDS60801.94814.json